Time;durP1;ratioP1;P1;durP2;ratioP2;P2;SDS_P1;SDS_P2;PMS_P1;PMS_P2;Temp;Humidity;BMP_temperature;BMP_pressure;BME280_temperature;BME280_humidity;BME280_pressure;Samples;Min_cycle;Max_cycle;Signal;HPM_P1;HPM_P2
2022/01/07 00:00:25;;;;;;;12.10;7.45;;;;;;;6.55;71.23;101028.53;5019284;28;20176;-81
2022/01/07 00:02:53;;;;;;;10.27;6.82;;;;;;;6.48;71.20;101022.75;5018810;28;20213;-80
2022/01/07 00:05:20;;;;;;;9.95;6.80;;;;;;;6.48;71.19;101024.38;5018475;28;20174;-79
2022/01/07 00:07:46;;;;;;;10.10;6.35;;;;;;;6.42;71.08;101009.31;5018135;28;20169;-80
2022/01/07 00:10:14;;;;;;;10.77;7.07;;;;;;;6.44;71.29;101032.38;4982691;28;20217;-79
2022/01/07 00:12:40;;;;;;;10.93;6.30;;;;;;;6.30;71.24;101018.13;5006226;28;20206;-80
2022/01/07 00:15:06;;;;;;;9.98;6.18;;;;;;;6.48;71.26;101039.66;5015010;28;20220;-79
2022/01/07 00:17:31;;;;;;;10.30;6.63;;;;;;;6.41;71.24;101039.69;5000931;28;20189;-80
2022/01/07 00:19:57;;;;;;;9.10;6.45;;;;;;;5.69;71.20;100927.16;5014020;28;20173;-79
2022/01/07 00:22:23;;;;;;;9.35;6.90;;;;;;;6.35;71.43;101050.06;5017929;28;20205;-79
2022/01/07 00:24:48;;;;;;;11.98;6.78;;;;;;;6.32;71.93;101056.44;5017274;28;20184;-78
2022/01/07 00:27:14;;;;;;;10.68;6.53;;;;;;;6.35;72.16;101056.78;5016526;28;20181;-79
2022/01/07 00:29:40;;;;;;;10.52;6.28;;;;;;;5.82;71.72;100968.50;5018255;28;20169;-78
2022/01/07 00:32:06;;;;;;;8.93;6.35;;;;;;;6.12;71.63;101028.75;5018651;28;20236;-78
2022/01/07 00:34:32;;;;;;;9.13;6.18;;;;;;;6.24;71.55;101053.94;5013033;28;20205;-79
2022/01/07 00:36:59;;;;;;;11.45;6.43;;;;;;;6.30;71.96;101066.47;4995853;28;20624;-79
2022/01/07 00:39:26;;;;;;;9.68;6.35;;;;;;;6.30;71.63;101060.47;4977364;28;20200;-80
2022/01/07 00:41:51;;;;;;;11.20;6.15;;;;;;;6.33;71.80;101071.91;4994746;28;20642;-81
2022/01/07 00:44:17;;;;;;;8.27;5.95;;;;;;;6.32;71.74;101077.72;4996909;28;20209;-81
2022/01/07 00:46:43;;;;;;;8.45;5.90;;;;;;;6.31;71.94;101075.91;4994705;28;20268;-80
2022/01/07 00:49:09;;;;;;;9.93;6.22;;;;;;;6.38;71.39;101086.03;4993426;28;20177;-80
2022/01/07 00:51:35;;;;;;;9.17;6.07;;;;;;;6.21;71.87;101063.78;4993168;28;20177;-81
2022/01/07 00:54:00;;;;;;;8.80;6.00;;;;;;;6.44;71.66;101085.84;4992572;28;20192;-79
2022/01/07 00:56:26;;;;;;;8.02;5.90;;;;;;;6.45;71.58;101095.31;4992823;28;20217;-81
2022/01/07 00:58:51;;;;;;;10.10;5.50;;;;;;;6.43;71.48;101100.22;4992417;28;20177;-79
2022/01/07 01:01:17;;;;;;;8.35;6.20;;;;;;;6.51;71.48;101106.19;4992421;28;20177;-80
2022/01/07 01:03:43;;;;;;;9.98;6.10;;;;;;;6.60;71.71;101102.13;4992427;28;20277;-80
2022/01/07 01:06:09;;;;;;;9.10;5.78;;;;;;;6.40;70.78;101069.31;4992494;28;20178;-80
2022/01/07 01:08:36;;;;;;;9.45;6.18;;;;;;;6.46;71.14;101084.38;4992581;28;20185;-79
2022/01/07 01:11:02;;;;;;;10.00;6.55;;;;;;;6.46;71.10;101097.13;4991953;28;20368;-80
2022/01/07 01:13:31;;;;;;;9.27;5.68;;;;;;;6.49;70.84;101097.47;4992065;28;20184;-80
2022/01/07 01:15:57;;;;;;;12.38;6.80;;;;;;;6.32;71.09;101061.53;4975386;28;20263;-80
2022/01/07 01:18:22;;;;;;;11.27;5.97;;;;;;;6.54;71.20;101103.06;4992535;28;20232;-79
2022/01/07 01:20:48;;;;;;;10.93;6.32;;;;;;;5.95;70.52;100988.66;4993004;28;20663;-79
2022/01/07 01:23:13;;;;;;;8.93;6.22;;;;;;;6.61;70.51;101098.84;4992657;28;20212;-80
2022/01/07 01:25:39;;;;;;;10.90;5.85;;;;;;;6.57;70.69;101100.88;4992989;28;20248;-80
2022/01/07 01:28:04;;;;;;;9.82;6.10;;;;;;;6.59;71.24;101099.41;4993507;28;20177;-80
2022/01/07 01:30:32;;;;;;;9.65;6.22;;;;;;;6.59;70.92;101114.69;4992740;28;20196;-79
2022/01/07 01:32:58;;;;;;;12.43;5.80;;;;;;;6.58;70.94;101116.34;4998404;28;20264;-79
2022/01/07 01:35:24;;;;;;;10.32;5.97;;;;;;;6.62;70.74;101113.41;5002039;28;20260;-80
2022/01/07 01:37:50;;;;;;;15.32;6.65;;;;;;;6.56;70.88;101120.34;4999384;28;20173;-79
2022/01/07 01:40:19;;;;;;;11.85;6.38;;;;;;;6.50;71.44;101114.53;4981195;28;20667;-81
2022/01/07 01:42:46;;;;;;;9.25;6.05;;;;;;;6.42;71.15;101111.13;4998401;28;20201;-80
2022/01/07 01:45:15;;;;;;;10.88;6.25;;;;;;;6.40;71.48;101106.59;5002599;28;20180;-80
2022/01/07 01:47:41;;;;;;;12.27;7.30;;;;;;;5.87;72.27;101035.19;4999362;28;20244;-80
2022/01/07 01:50:08;;;;;;;9.88;7.10;;;;;;;6.37;72.30;101114.78;4999693;28;20645;-81
2022/01/07 01:52:34;;;;;;;12.88;6.70;;;;;;;6.41;72.33;101106.75;5004600;28;20173;-78
2022/01/07 01:55:00;;;;;;;10.88;6.65;;;;;;;6.28;71.87;101101.00;4987183;28;20236;-80
2022/01/07 01:57:26;;;;;;;10.23;6.38;;;;;;;6.36;72.42;101119.72;5000512;28;20677;-79
2022/01/07 01:59:52;;;;;;;11.00;6.17;;;;;;;6.09;72.07;101081.81;4987111;28;20188;-79
2022/01/07 02:02:17;;;;;;;10.65;6.72;;;;;;;6.17;72.37;101097.25;5004404;28;20173;-79
2022/01/07 02:04:43;;;;;;;13.15;7.90;;;;;;;6.30;72.26;101132.66;4982480;28;20180;-81
2022/01/07 02:07:11;;;;;;;11.35;7.50;;;;;;;5.99;72.42;101074.78;4995852;28;20675;-79
2022/01/07 02:09:37;;;;;;;12.35;7.05;;;;;;;6.27;72.85;101118.66;4996220;28;20288;-79
2022/01/07 02:12:05;;;;;;;9.47;6.83;;;;;;;6.34;72.61;101127.16;4996913;28;20177;-79
2022/01/07 02:14:31;;;;;;;15.00;7.80;;;;;;;6.05;72.55;101082.22;4996729;28;20173;-78
2022/01/07 02:17:05;;;;;;;11.98;7.20;;;;;;;6.07;72.78;101080.72;5000855;28;20192;-79
2022/01/07 02:19:31;;;;;;;10.43;7.33;;;;;;;6.35;72.91;101128.97;5004077;28;20197;-79
2022/01/07 02:21:57;;;;;;;12.93;7.80;;;;;;;6.03;72.19;101065.84;5006381;28;20177;-78
2022/01/07 02:24:22;;;;;;;10.30;6.97;;;;;;;6.31;72.38;101105.56;5005504;28;20205;-79
2022/01/07 02:26:48;;;;;;;11.10;7.20;;;;;;;6.37;72.75;101118.97;5000618;28;20180;-79
2022/01/07 02:29:13;;;;;;;13.02;7.40;;;;;;;6.20;71.78;101078.88;4983688;28;20177;-80
2022/01/07 02:31:39;;;;;;;10.50;7.72;;;;;;;6.45;71.74;101131.84;5005227;28;20197;-77
2022/01/07 02:34:04;;;;;;;13.30;7.43;;;;;;;6.11;72.09;101091.47;5007634;28;20177;-79
2022/01/07 02:36:30;;;;;;;12.23;7.20;;;;;;;6.19;72.14;101085.59;5009903;28;20177;-78
2022/01/07 02:38:55;;;;;;;12.93;7.97;;;;;;;6.39;72.17;101135.34;5000962;28;20664;-79
2022/01/07 02:41:21;;;;;;;11.80;7.45;;;;;;;6.23;72.86;101125.00;5000333;28;20184;-81
2022/01/07 02:43:46;;;;;;;11.40;7.55;;;;;;;6.41;72.11;101134.75;5000747;28;20201;-79
2022/01/07 02:46:12;;;;;;;13.63;7.47;;;;;;;6.33;72.69;101155.91;5003422;28;20636;-81
2022/01/07 02:48:37;;;;;;;17.95;8.00;;;;;;;6.48;72.34;101161.84;5001587;28;20220;-79
2022/01/07 02:51:03;;;;;;;13.65;7.28;;;;;;;6.49;72.32;101163.66;5001758;28;20177;-79
2022/01/07 02:53:29;;;;;;;12.48;7.65;;;;;;;6.52;71.77;101168.19;5003952;28;20181;-79
2022/01/07 02:55:54;;;;;;;16.13;8.52;;;;;;;6.45;72.11;101170.03;5002466;28;20181;-79
2022/01/07 02:58:20;;;;;;;13.05;7.95;;;;;;;6.45;71.99;101169.13;4996218;28;20185;-81
2022/01/07 03:00:45;;;;;;;17.10;8.43;;;;;;;6.48;72.35;101175.47;4977597;28;20178;-80
2022/01/07 03:03:11;;;;;;;14.35;8.80;;;;;;;6.46;72.58;101163.31;4995135;28;20205;-79
2022/01/07 03:05:39;;;;;;;13.02;8.80;;;;;;;6.40;72.41;101160.06;4977997;28;20699;-82
2022/01/07 03:08:04;;;;;;;14.30;8.73;;;;;;;6.28;72.20;101133.19;4996247;28;20186;-80
2022/01/07 03:10:30;;;;;;;14.77;8.07;;;;;;;6.54;72.43;101184.53;4977262;28;20224;-80
2022/01/07 03:13:00;;;;;;;13.65;8.30;;;;;;;6.64;71.58;101197.63;4999183;28;20196;-80
2022/01/07 03:15:27;;;;;;;13.45;8.15;;;;;;;6.65;71.51;101196.88;5000901;28;20186;-79
2022/01/07 03:17:52;;;;;;;18.52;8.55;;;;;;;6.43;71.95;101175.69;4999807;28;20185;-79
2022/01/07 03:20:19;;;;;;;15.23;8.82;;;;;;;6.58;71.63;101205.44;5000626;28;20266;-79
2022/01/07 03:22:46;;;;;;;16.88;8.57;;;;;;;6.63;72.05;101204.31;4999514;28;20204;-80
2022/01/07 03:25:12;;;;;;;14.52;8.45;;;;;;;6.54;71.92;101203.28;5001817;28;20213;-81
2022/01/07 03:27:38;;;;;;;14.55;8.73;;;;;;;6.56;71.87;101206.00;5002511;28;20170;-79
2022/01/07 03:30:06;;;;;;;11.85;8.32;;;;;;;6.64;71.49;101216.34;5001292;28;20555;-78
2022/01/07 03:32:31;;;;;;;13.15;8.45;;;;;;;6.46;72.29;101217.66;5001910;28;20271;-80
2022/01/07 03:34:57;;;;;;;12.82;8.82;;;;;;;6.25;72.09;101170.28;5003084;28;20212;-79
2022/01/07 03:37:22;;;;;;;12.55;8.13;;;;;;;6.54;72.21;101217.63;5000568;28;20196;-80
2022/01/07 03:39:48;;;;;;;17.08;8.90;;;;;;;6.51;72.13;101214.72;4996132;28;20177;-79
2022/01/07 03:42:14;;;;;;;11.65;8.60;;;;;;;6.28;72.76;101196.81;4977224;28;20237;-81
2022/01/07 03:44:40;;;;;;;12.30;8.73;;;;;;;6.40;72.66;101219.50;4993861;28;20272;-81
2022/01/07 03:47:05;;;;;;;14.27;9.37;;;;;;;6.51;72.75;101223.31;4994131;28;20256;-80
2022/01/07 03:49:31;;;;;;;12.80;9.18;;;;;;;6.56;72.55;101228.91;4993650;28;20177;-79
2022/01/07 03:51:56;;;;;;;14.10;9.15;;;;;;;6.41;72.93;101202.59;4993496;28;20174;-80
2022/01/07 03:54:23;;;;;;;15.68;8.95;;;;;;;6.51;72.52;101217.28;4993639;28;20196;-80
2022/01/07 03:56:48;;;;;;;14.95;9.23;;;;;;;6.45;72.15;101207.31;4976155;28;20284;-79
2022/01/07 03:59:14;;;;;;;15.95;9.40;;;;;;;6.36;71.97;101179.16;4993808;28;20717;-78
2022/01/07 04:01:39;;;;;;;15.60;9.15;;;;;;;6.58;72.28;101233.47;4993709;28;20192;-79
2022/01/07 04:04:05;;;;;;;17.73;8.82;;;;;;;6.64;71.99;101226.53;4993673;28;20220;-80
2022/01/07 04:06:31;;;;;;;13.77;8.95;;;;;;;6.36;71.90;101180.81;4993695;28;20665;-79
2022/01/07 04:08:57;;;;;;;15.05;9.73;;;;;;;6.61;72.39;101232.91;4993249;28;20575;-80
2022/01/07 04:11:23;;;;;;;14.68;9.65;;;;;;;6.63;71.80;101208.50;4975398;28;20729;-80
2022/01/07 04:13:48;;;;;;;15.75;10.05;;;;;;;6.48;71.73;101194.94;4993114;28;20200;-83
2022/01/07 04:16:14;;;;;;;16.98;10.68;;;;;;;6.75;71.70;101235.38;4993384;28;20268;-80
2022/01/07 04:18:39;;;;;;;17.50;11.40;;;;;;;6.69;71.66;101235.59;4993415;28;20196;-79
2022/01/07 04:21:05;;;;;;;19.63;11.47;;;;;;;6.63;71.75;101237.44;4993129;28;20312;-81
2022/01/07 04:23:31;;;;;;;17.50;10.85;;;;;;;6.60;72.43;101243.81;4993197;28;20201;-79
2022/01/07 04:25:57;;;;;;;24.17;10.82;;;;;;;6.66;72.13;101244.50;4993580;28;20220;-79
2022/01/07 04:28:23;;;;;;;16.10;10.32;;;;;;;6.68;71.96;101255.81;4975779;28;20244;-83
2022/01/07 04:30:48;;;;;;;16.40;9.90;;;;;;;6.68;71.94;101266.88;4992861;28;20288;-80
2022/01/07 04:33:21;;;;;;;18.10;10.70;;;;;;;6.69;71.83;101247.41;4992036;28;20177;-80
2022/01/07 04:35:47;;;;;;;17.48;10.50;;;;;;;6.45;72.09;101233.69;4993053;28;20169;-83
2022/01/07 04:38:12;;;;;;;21.45;13.30;;;;;;;6.59;72.36;101236.91;4993372;28;20613;-84
2022/01/07 04:40:39;;;;;;;24.80;13.17;;;;;;;6.57;71.99;101229.06;4975222;28;20179;-81
2022/01/07 04:43:06;;;;;;;23.95;15.27;;;;;;;6.56;72.39;101247.66;4993155;28;20205;-82
2022/01/07 04:45:33;;;;;;;25.70;13.43;;;;;;;6.58;72.15;101256.38;4992480;28;20544;-79
2022/01/07 04:47:59;;;;;;;26.77;13.30;;;;;;;6.66;72.09;101262.34;4992729;28;20213;-83
2022/01/07 04:50:25;;;;;;;27.45;13.52;;;;;;;6.57;72.48;101252.00;4993089;28;20177;-84
2022/01/07 04:52:51;;;;;;;24.60;12.80;;;;;;;6.67;72.07;101264.19;4992707;28;20169;-84
2022/01/07 04:55:20;;;;;;;20.85;12.32;;;;;;;6.84;71.12;101277.19;4976088;28;20197;-83
2022/01/07 04:57:47;;;;;;;22.17;12.60;;;;;;;6.68;71.08;101243.06;4994203;28;20177;-81
2022/01/07 05:00:15;;;;;;;18.67;11.30;;;;;;;6.47;71.34;101244.03;4993477;28;20173;-84
2022/01/07 05:02:40;;;;;;;19.30;11.02;;;;;;;6.43;71.27;101226.59;4992505;28;20300;-83
2022/01/07 05:05:06;;;;;;;21.23;11.90;;;;;;;6.69;72.20;101276.34;4992200;28;20671;-83
2022/01/07 05:07:34;;;;;;;17.33;11.63;;;;;;;6.50;72.12;101256.22;4992398;28;20173;-82
2022/01/07 05:09:59;;;;;;;23.30;12.82;;;;;;;6.58;72.77;101294.56;4974850;28;20380;-80
2022/01/07 05:12:25;;;;;;;20.75;12.98;;;;;;;6.68;71.85;101284.72;4992498;28;20267;-82
2022/01/07 05:14:51;;;;;;;23.60;14.07;;;;;;;6.63;71.55;101272.16;4992399;28;20624;-88
2022/01/07 05:17:16;;;;;;;22.17;12.00;;;;;;;6.75;71.70;101301.59;4992311;28;20209;-80
2022/01/07 05:19:42;;;;;;;26.23;15.50;;;;;;;6.55;71.73;101270.41;4991854;28;20184;-80
2022/01/07 05:22:07;;;;;;;20.73;13.18;;;;;;;6.75;71.08;101298.16;4992293;28;20173;-81
2022/01/07 05:24:33;;;;;;;18.83;11.97;;;;;;;6.74;71.52;101307.44;4991794;28;20173;-79
2022/01/07 05:26:59;;;;;;;20.15;11.27;;;;;;;6.72;71.78;101312.34;4992366;28;20193;-80
2022/01/07 05:29:25;;;;;;;19.60;10.95;;;;;;;6.52;71.93;101272.59;4992077;28;20252;-85
2022/01/07 05:31:52;;;;;;;21.73;11.35;;;;;;;6.85;70.34;101311.22;4992782;28;20212;-84
2022/01/07 05:34:18;;;;;;;21.27;11.98;;;;;;;6.88;70.57;101325.22;4992792;28;20704;-84
2022/01/07 05:36:44;;;;;;;23.25;12.50;;;;;;;6.85;70.53;101323.97;4975659;28;20200;-84
2022/01/07 05:39:10;;;;;;;21.60;12.50;;;;;;;6.76;71.59;101305.06;4994054;28;20193;-81
2022/01/07 05:41:35;;;;;;;20.47;10.93;;;;;;;6.88;71.46;101331.97;4995831;28;20256;-82
2022/01/07 05:44:01;;;;;;;23.23;10.70;;;;;;;6.91;73.14;101335.75;4995976;28;20216;-80
2022/01/07 05:46:26;;;;;;;21.48;11.90;;;;;;;6.70;74.07;101301.09;4977929;28;20169;-78
2022/01/07 05:48:52;;;;;;;22.17;12.98;;;;;;;6.82;72.33;101314.34;4996576;28;20197;-80
2022/01/07 05:51:18;;;;;;;27.63;11.02;;;;;;;7.02;72.31;101343.75;4992744;28;20170;-80
2022/01/07 05:53:44;;;;;;;18.08;10.20;;;;;;;7.01;71.66;101347.97;4992586;28;20174;-79
2022/01/07 05:56:10;;;;;;;20.40;11.30;;;;;;;6.98;72.52;101354.31;4992451;28;20179;-78
2022/01/07 05:58:36;;;;;;;20.45;11.45;;;;;;;6.90;71.96;101348.34;4992613;28;20272;-80
2022/01/07 06:01:01;;;;;;;18.75;10.98;;;;;;;6.92;71.62;101354.53;4993081;28;20211;-78
2022/01/07 06:03:27;;;;;;;25.08;11.10;;;;;;;6.89;71.66;101346.53;4993351;28;20681;-79
2022/01/07 06:05:53;;;;;;;24.02;11.82;;;;;;;6.68;70.86;101338.19;4992510;28;20636;-78
2022/01/07 06:08:18;;;;;;;19.33;10.68;;;;;;;6.65;71.68;101327.66;4992162;28;20724;-79
2022/01/07 06:10:44;;;;;;;21.35;13.00;;;;;;;6.58;72.15;101317.50;4991757;28;20217;-80
2022/01/07 06:13:09;;;;;;;24.50;12.65;;;;;;;6.94;72.80;101360.69;4992125;28;20177;-79
2022/01/07 06:15:35;;;;;;;24.17;12.23;;;;;;;6.97;71.52;101365.25;4992949;28;20177;-78
2022/01/07 06:18:04;;;;;;;23.52;12.70;;;;;;;6.89;71.68;101346.53;4993347;28;20185;-79
2022/01/07 06:20:29;;;;;;;20.52;11.95;;;;;;;7.10;70.48;101379.59;4997268;28;20209;-78
2022/01/07 06:22:55;;;;;;;20.63;11.73;;;;;;;6.88;70.74;101343.03;4996174;28;20237;-79
2022/01/07 06:25:20;;;;;;;22.92;11.85;;;;;;;7.03;69.95;101356.66;4995930;28;20258;-80
2022/01/07 06:27:46;;;;;;;18.85;10.75;;;;;;;7.17;70.85;101381.22;5003095;28;20169;-80
2022/01/07 06:30:12;;;;;;;20.25;11.07;;;;;;;7.11;70.64;101383.97;4999466;28;20189;-79
2022/01/07 06:32:37;;;;;;;20.48;11.30;;;;;;;7.27;70.27;101390.81;4995748;28;20193;-79
2022/01/07 06:35:03;;;;;;;19.38;11.43;;;;;;;7.04;69.84;101352.47;4996423;28;20169;-79
2022/01/07 06:37:29;;;;;;;20.35;11.35;;;;;;;7.32;70.10;101405.94;4996503;28;20177;-78
2022/01/07 06:39:55;;;;;;;24.08;12.02;;;;;;;7.05;69.64;101356.84;4979247;28;20181;-78
2022/01/07 06:42:21;;;;;;;26.55;14.85;;;;;;;7.36;69.51;101413.19;4994958;28;20180;-78
2022/01/07 06:44:46;;;;;;;19.55;12.35;;;;;;;7.43;69.28;101414.78;4995470;28;20174;-77
2022/01/07 06:47:12;;;;;;;22.02;13.52;;;;;;;7.46;69.31;101416.78;4995304;28;20194;-77
2022/01/07 06:49:38;;;;;;;25.27;14.27;;;;;;;7.48;69.85;101423.00;4994783;28;20178;-78
2022/01/07 06:52:04;;;;;;;22.15;13.95;;;;;;;7.36;68.80;101394.44;4995047;28;20178;-78
2022/01/07 06:54:31;;;;;;;22.15;13.15;;;;;;;7.62;68.69;101434.03;4994888;28;20225;-76
2022/01/07 06:56:57;;;;;;;24.67;13.27;;;;;;;7.62;68.21;101440.78;4994956;28;20283;-77
2022/01/07 06:59:23;;;;;;;24.65;12.63;;;;;;;7.55;68.63;101434.06;4994737;28;20237;-79
2022/01/07 07:01:49;;;;;;;23.67;11.77;;;;;;;7.60;68.01;101438.06;4976798;28;20177;-79
2022/01/07 07:04:16;;;;;;;23.30;11.90;;;;;;;7.51;67.85;101421.69;4960598;28;20309;-77
2022/01/07 07:06:41;;;;;;;20.67;11.95;;;;;;;7.59;66.84;101436.22;4994047;28;20177;-77
2022/01/07 07:09:09;;;;;;;21.50;12.77;;;;;;;7.59;67.50;101437.88;4993929;28;20185;-76
2022/01/07 07:11:34;;;;;;;20.02;12.35;;;;;;;7.58;67.17;101439.50;4993909;28;20657;-75
2022/01/07 07:14:00;;;;;;;25.85;12.98;;;;;;;7.57;67.46;101426.56;4994282;28;20181;-77
2022/01/07 07:16:27;;;;;;;19.80;11.63;;;;;;;7.55;66.87;101425.50;4993734;28;20185;-76
2022/01/07 07:18:53;;;;;;;23.00;13.45;;;;;;;7.50;67.51;101422.41;4993976;28;20178;-77
2022/01/07 07:21:18;;;;;;;20.23;12.45;;;;;;;7.68;67.06;101450.78;4993500;28;20255;-78
2022/01/07 07:23:45;;;;;;;27.60;14.45;;;;;;;7.70;67.46;101447.66;4993795;28;20201;-77
2022/01/07 07:26:11;;;;;;;26.80;15.75;;;;;;;7.87;68.04;101452.13;4993774;28;20681;-76
2022/01/07 07:28:38;;;;;;;22.67;14.48;;;;;;;7.72;66.05;101405.38;4975891;28;20236;-74
2022/01/07 07:31:06;;;;;;;24.70;13.10;;;;;;;8.05;65.97;101461.88;4992980;28;20201;-77
2022/01/07 07:33:55;;;;;;;25.10;13.35;;;;;;;8.13;64.87;101456.72;4993418;28;20597;-76
2022/01/07 07:36:30;;;;;;;22.70;12.48;;;;;;;8.16;65.15;101455.47;4993184;28;20186;-76
2022/01/07 07:39:04;;;;;;;22.95;14.30;;;;;;;8.05;64.49;101435.47;4961618;28;20173;-77
2022/01/07 07:41:31;;;;;;;31.75;18.10;;;;;;;8.09;67.69;101452.91;4976520;28;20173;-76
2022/01/07 07:43:57;;;;;;;19.60;12.10;;;;;;;8.23;64.47;101455.41;4975793;28;20209;-76
2022/01/07 07:46:24;;;;;;;17.30;11.65;;;;;;;7.79;64.46;101390.03;4993207;28;20253;-76
2022/01/07 07:48:51;;;;;;;25.60;11.68;;;;;;;7.91;64.62;101416.00;4976126;28;20219;-75
2022/01/07 07:51:17;;;;;;;19.83;11.48;;;;;;;8.10;64.86;101463.31;4993184;28;20177;-76
2022/01/07 07:53:43;;;;;;;20.95;11.30;;;;;;;7.78;64.62;101429.03;4993293;28;20199;-78
2022/01/07 07:56:13;;;;;;;21.73;11.23;;;;;;;7.91;64.85;101468.69;4993268;28;20641;-77
2022/01/07 07:58:39;;;;;;;20.05;11.38;;;;;;;7.96;64.78;101459.94;4994160;28;20177;-80
2022/01/07 08:01:05;;;;;;;20.50;12.60;;;;;;;7.85;64.80;101441.78;4975936;28;20228;-79
2022/01/07 08:03:31;;;;;;;26.88;12.80;;;;;;;7.87;65.06;101434.28;4993042;28;20244;-78
2022/01/07 08:05:56;;;;;;;27.50;11.48;;;;;;;7.91;65.66;101422.75;4992908;28;20205;-78
2022/01/07 08:08:22;;;;;;;21.63;12.57;;;;;;;8.17;64.79;101462.38;4992063;28;20190;-77
2022/01/07 08:10:55;;;;;;;18.02;10.88;;;;;;;8.06;63.62;101452.56;4992732;28;20229;-78
2022/01/07 08:15:58;;;;;;;20.95;12.25;;;;;;;8.05;63.93;101463.53;4993855;28;20169;-83
2022/01/07 08:16:24;;;;;;;25.23;12.73;;;;;;;7.49;64.04;101378.91;4992763;28;20277;-82
2022/01/07 08:18:53;;;;;;;20.23;11.35;;;;;;;7.79;64.63;101469.13;4993851;28;20173;-82
2022/01/07 08:21:20;;;;;;;21.92;12.07;;;;;;;7.82;64.22;101469.50;4976189;28;20645;-81
2022/01/07 08:23:47;;;;;;;18.55;11.23;;;;;;;7.76;64.36;101471.34;4993042;28;20261;-84
2022/01/07 08:26:15;;;;;;;20.80;12.15;;;;;;;7.74;64.48;101466.78;4993760;28;20178;-82
2022/01/07 08:28:47;;;;;;;21.02;11.63;;;;;;;7.62;64.72;101448.41;4993681;28;20185;-84
2022/01/07 08:36:27;;;;;;;19.52;11.88;;;;;;;7.74;64.59;101474.44;4994294;28;20176;-85
2022/01/07 08:38:53;;;;;;;20.02;11.73;;;;;;;7.63;65.03;101440.03;4994293;28;20184;-85
2022/01/07 08:41:23;;;;;;;18.85;11.63;;;;;;;7.85;65.14;101461.28;4994164;28;20173;-84
2022/01/07 08:43:49;;;;;;;21.73;12.35;;;;;;;7.82;64.95;101449.06;4993934;28;20194;-85
2022/01/07 08:46:15;;;;;;;22.77;12.00;;;;;;;8.03;64.49;101477.75;4994856;28;20173;-84
2022/01/07 08:48:42;;;;;;;27.15;12.85;;;;;;;8.09;64.47;101474.25;4976276;28;20641;-85
2022/01/07 08:51:10;;;;;;;24.15;11.82;;;;;;;8.13;64.35;101474.59;4976721;28;20184;-84
2022/01/07 08:53:36;;;;;;;19.30;11.15;;;;;;;7.96;64.00;101427.66;4976862;28;20240;-86
2022/01/07 08:56:03;;;;;;;24.63;12.15;;;;;;;8.09;63.82;101448.72;4994296;28;20224;-85
2022/01/07 08:58:28;;;;;;;16.92;9.60;;;;;;;8.25;63.41;101486.19;4994545;28;20184;-85
2022/01/07 09:00:55;;;;;;;19.40;11.77;;;;;;;8.15;63.31;101473.13;4993750;28;20173;-84
2022/01/07 09:03:21;;;;;;;20.85;11.23;;;;;;;8.19;63.40;101485.50;4994056;28;20221;-83
2022/01/07 09:05:48;;;;;;;20.75;11.02;;;;;;;8.12;63.13;101483.00;4994330;28;20178;-83
2022/01/07 09:08:14;;;;;;;17.48;11.57;;;;;;;7.99;63.36;101462.84;4994294;28;20188;-84
2022/01/07 09:10:40;;;;;;;15.68;10.02;;;;;;;8.12;63.05;101472.78;4993806;28;20277;-83
2022/01/07 09:13:06;;;;;;;21.42;11.93;;;;;;;8.13;63.23;101477.16;4993831;28;20182;-84
2022/01/07 09:15:33;;;;;;;15.73;10.52;;;;;;;8.04;63.10;101467.72;4993867;28;20173;-84
2022/01/07 09:17:58;;;;;;;15.90;9.88;;;;;;;8.01;63.28;101467.38;4993340;28;20208;-83
2022/01/07 09:20:24;;;;;;;23.70;13.77;;;;;;;8.04;64.31;101485.59;4993636;28;20227;-84
2022/01/07 09:22:50;;;;;;;23.65;12.55;;;;;;;7.95;64.04;101464.13;4976138;28;20212;-84
2022/01/07 09:25:16;;;;;;;19.23;11.32;;;;;;;8.00;63.75;101477.41;4993511;28;20177;-82
2022/01/07 09:27:42;;;;;;;22.20;11.48;;;;;;;7.83;64.56;101463.63;4993441;28;20196;-84
2022/01/07 09:30:10;;;;;;;22.73;11.63;;;;;;;7.92;63.61;101489.31;4993476;28;20586;-84
2022/01/07 09:32:36;;;;;;;24.17;13.27;;;;;;;7.82;63.89;101466.94;4993698;28;20170;-84
2022/01/07 09:35:05;;;;;;;22.67;13.50;;;;;;;7.82;64.72;101459.28;4995923;28;20177;-84
2022/01/07 09:37:31;;;;;;;29.70;15.18;;;;;;;7.97;64.09;101483.06;4977214;28;20196;-83
2022/01/07 09:39:56;;;;;;;21.65;13.02;;;;;;;8.00;64.14;101467.19;4995926;28;20574;-86
2022/01/07 09:42:22;;;;;;;19.40;12.20;;;;;;;7.99;64.06;101467.94;4994176;28;20708;-84
2022/01/07 09:44:48;;;;;;;16.95;11.43;;;;;;;8.03;63.77;101473.56;4995507;28;20233;-85
2022/01/07 09:47:14;;;;;;;20.95;12.85;;;;;;;7.91;63.87;101446.63;4994255;28;20181;-85
2022/01/07 09:49:41;;;;;;;27.33;13.25;;;;;;;7.75;63.90;101412.47;4993926;28;20189;-85
2022/01/07 09:52:08;;;;;;;17.77;11.20;;;;;;;8.13;63.54;101479.69;4994358;28;20174;-83
2022/01/07 09:54:36;;;;;;;21.45;12.07;;;;;;;8.16;63.37;101477.50;4997947;28;20567;-84
2022/01/07 09:57:04;;;;;;;24.42;12.15;;;;;;;8.15;63.16;101484.25;4983029;28;20180;-85
2022/01/07 09:59:30;;;;;;;18.17;10.85;;;;;;;8.20;63.56;101482.25;5017974;28;20173;-88
2022/01/07 10:01:59;;;;;;;21.60;12.02;;;;;;;8.19;63.13;101482.94;5016809;28;20252;-84
2022/01/07 10:04:34;;;;;;;21.50;11.80;;;;;;;7.94;62.89;101439.31;5014016;28;20268;-84
2022/01/07 10:07:23;;;;;;;17.13;11.60;;;;;;;8.19;63.02;101481.31;5015967;28;20196;-85
2022/01/07 10:10:17;;;;;;;16.40;10.27;;;;;;;8.18;63.67;101483.69;5021571;28;20240;-84
2022/01/07 10:13:03;;;;;;;18.27;10.88;;;;;;;8.17;63.49;101467.47;5021358;28;20173;-83
2022/01/07 10:15:37;;;;;;;22.08;12.48;;;;;;;8.31;63.43;101481.78;5021761;28;20164;-84
2022/01/07 10:18:11;;;;;;;21.13;12.43;;;;;;;7.59;63.00;101364.81;5021816;28;20160;-81
2022/01/07 10:20:40;;;;;;;18.20;11.27;;;;;;;8.32;62.72;101463.19;5021841;28;20169;-81
2022/01/07 10:23:07;;;;;;;23.08;13.18;;;;;;;8.35;62.56;101476.31;5018752;28;20209;-83
2022/01/07 10:25:38;;;;;;;24.63;13.85;;;;;;;8.21;62.36;101453.41;5017079;28;20179;-84
2022/01/07 10:28:08;;;;;;;23.80;13.73;;;;;;;8.23;63.24;101444.28;5021663;28;20189;-82
2022/01/07 10:30:49;;;;;;;20.70;11.60;;;;;;;8.44;62.47;101473.88;5014073;28;20264;-85
2022/01/07 10:33:26;;;;;;;21.30;12.48;;;;;;;8.43;61.86;101478.09;5013631;28;20592;-83
2022/01/07 10:35:54;;;;;;;20.25;11.75;;;;;;;8.47;62.00;101474.22;5020254;28;20204;-84
2022/01/07 10:38:28;;;;;;;20.05;12.20;;;;;;;8.41;62.37;101458.22;5017138;28;20174;-84
2022/01/07 10:40:59;;;;;;;25.85;11.57;;;;;;;8.52;61.65;101475.66;5018603;28;20177;-82
2022/01/07 10:43:34;;;;;;;21.15;12.40;;;;;;;8.59;62.13;101485.81;5018929;28;20189;-83
2022/01/07 10:46:24;;;;;;;21.73;12.50;;;;;;;8.70;61.15;101464.94;5021029;28;20180;-82
2022/01/07 10:49:00;;;;;;;19.70;11.52;;;;;;;8.71;60.76;101450.50;5019877;28;20181;-80
2022/01/07 10:51:31;;;;;;;19.08;11.85;;;;;;;8.85;60.63;101458.06;5020244;28;20173;-84
2022/01/07 10:53:57;;;;;;;19.48;11.90;;;;;;;8.85;60.00;101442.75;5020712;28;20168;-83
2022/01/07 10:56:33;;;;;;;22.13;11.27;;;;;;;8.99;60.14;101462.13;5020219;28;20221;-82
2022/01/07 10:59:02;;;;;;;16.52;10.32;;;;;;;9.04;60.08;101463.56;5001723;28;20193;-83
2022/01/07 11:01:32;;;;;;;22.13;11.50;;;;;;;9.06;59.42;101445.81;5015951;28;20200;-82
2022/01/07 11:04:00;;;;;;;18.30;11.02;;;;;;;9.24;60.14;101456.38;5013495;28;20252;-81
2022/01/07 11:06:28;;;;;;;24.23;11.70;;;;;;;9.34;59.21;101454.84;5010998;28;20181;-84
2022/01/07 11:08:56;;;;;;;21.85;11.55;;;;;;;9.39;59.31;101453.69;5005584;28;20232;-86
2022/01/07 11:11:24;;;;;;;18.55;11.38;;;;;;;9.52;59.39;101461.03;5006565;28;20280;-84
2022/01/07 11:13:50;;;;;;;16.20;10.35;;;;;;;9.41;58.57;101460.78;5005193;28;20201;-83
2022/01/07 11:16:17;;;;;;;20.08;10.23;;;;;;;8.73;58.25;101351.97;5003014;28;20181;-84
2022/01/07 11:18:45;;;;;;;16.58;10.30;;;;;;;9.41;59.04;101465.00;5003812;28;20287;-84
2022/01/07 11:21:12;;;;;;;16.58;9.57;;;;;;;9.26;57.98;101425.88;5003606;28;20193;-86
2022/01/07 11:23:38;;;;;;;18.13;11.38;;;;;;;9.33;57.95;101407.00;5003074;28;20213;-85
2022/01/07 11:26:09;;;;;;;14.68;10.02;;;;;;;9.67;57.17;101463.59;5000712;28;20269;-86